sensor_id;sensor_type;location;lat;lon;timestamp;pressure;altitude;pressure_sealevel;temperature;humidity
74905;BME280;63465;50.862;6.220;2022-10-03T00:17:22;100894.97;;;9.82;83.20
74905;BME280;63465;50.862;6.220;2022-10-03T00:25:40;100912.13;;;9.68;83.60
74905;BME280;63465;50.862;6.220;2022-10-03T00:31:16;100910.41;;;9.99;83.25
74905;BME280;63465;50.862;6.220;2022-10-03T00:33:59;100908.31;;;9.79;82.98
74905;BME280;63465;50.862;6.220;2022-10-03T00:56:05;100906.00;;;9.66;84.33
74905;BME280;63465;50.862;6.220;2022-10-03T00:58:47;100920.28;;;9.60;83.57
74905;BME280;63465;50.862;6.220;2022-10-03T01:04:06;100908.13;;;9.53;83.85
74905;BME280;63465;50.862;6.220;2022-10-03T01:07:04;100905.78;;;9.40;83.94
74905;BME280;63465;50.862;6.220;2022-10-03T01:09:49;100907.53;;;9.76;83.18
74905;BME280;63465;50.862;6.220;2022-10-03T01:15:28;100906.16;;;9.59;84.30
74905;BME280;63465;50.862;6.220;2022-10-03T01:20:46;100904.25;;;9.30;84.06
74905;BME280;63465;50.862;6.220;2022-10-03T01:26:36;100900.06;;;9.20;84.51
74905;BME280;63465;50.862;6.220;2022-10-03T01:29:11;100902.34;;;9.35;83.98
74905;BME280;63465;50.862;6.220;2022-10-03T01:40:15;100907.59;;;9.37;83.69
74905;BME280;63465;50.862;6.220;2022-10-03T01:48:37;100923.94;;;9.18;84.30
74905;BME280;63465;50.862;6.220;2022-10-03T01:51:12;100920.44;;;9.18;84.69
74905;BME280;63465;50.862;6.220;2022-10-03T01:56:45;100926.94;;;9.03;84.96
74905;BME280;63465;50.862;6.220;2022-10-03T01:59:21;100935.59;;;9.11;84.37
74905;BME280;63465;50.862;6.220;2022-10-03T02:10:19;100936.19;;;9.24;85.08
74905;BME280;63465;50.862;6.220;2022-10-03T02:13:36;100928.78;;;9.01;84.91
74905;BME280;63465;50.862;6.220;2022-10-03T02:21:28;100942.41;;;9.59;86.15
74905;BME280;63465;50.862;6.220;2022-10-03T02:29:42;100940.22;;;9.01;85.43
74905;BME280;63465;50.862;6.220;2022-10-03T02:35:11;100930.50;;;9.02;85.12
74905;BME280;63465;50.862;6.220;2022-10-03T02:43:28;100937.72;;;9.34;86.23
74905;BME280;63465;50.862;6.220;2022-10-03T02:57:19;100936.72;;;9.01;85.69
74905;BME280;63465;50.862;6.220;2022-10-03T03:03:13;100931.47;;;8.99;85.79
74905;BME280;63465;50.862;6.220;2022-10-03T03:09:23;100939.88;;;9.54;85.13
74905;BME280;63465;50.862;6.220;2022-10-03T03:17:39;100946.13;;;9.13;85.73
74905;BME280;63465;50.862;6.220;2022-10-03T03:23:09;100946.34;;;9.03;85.29
74905;BME280;63465;50.862;6.220;2022-10-03T03:33:44;100942.31;;;9.26;85.01
74905;BME280;63465;50.862;6.220;2022-10-03T03:39:02;100950.88;;;8.98;85.85
74905;BME280;63465;50.862;6.220;2022-10-03T03:41:55;100951.69;;;9.02;85.63
74905;BME280;63465;50.862;6.220;2022-10-03T03:50:52;100952.56;;;9.40;86.10
74905;BME280;63465;50.862;6.220;2022-10-03T03:53:46;100964.66;;;9.13;85.98
74905;BME280;63465;50.862;6.220;2022-10-03T04:10:46;100958.38;;;9.18;85.62
74905;BME280;63465;50.862;6.220;2022-10-03T04:13:28;100958.41;;;9.17;85.46
74905;BME280;63465;50.862;6.220;2022-10-03T04:21:39;100963.19;;;9.01;86.01
74905;BME280;63465;50.862;6.220;2022-10-03T04:27:25;100967.72;;;8.94;86.17
74905;BME280;63465;50.862;6.220;2022-10-03T04:30:04;100976.50;;;8.98;85.91
74905;BME280;63465;50.862;6.220;2022-10-03T04:32:44;100967.78;;;8.92;86.11
74905;BME280;63465;50.862;6.220;2022-10-03T04:41:19;100974.22;;;8.81;86.08
74905;BME280;63465;50.862;6.220;2022-10-03T04:46:53;100974.16;;;8.84;86.39
74905;BME280;63465;50.862;6.220;2022-10-03T04:52:40;100968.81;;;8.85;85.57
74905;BME280;63465;50.862;6.220;2022-10-03T05:00:49;100975.06;;;9.23;85.98
74905;BME280;63465;50.862;6.220;2022-10-03T05:06:09;100975.19;;;8.77;85.79
74905;BME280;63465;50.862;6.220;2022-10-03T05:09:29;100981.31;;;8.79;85.89
74905;BME280;63465;50.862;6.220;2022-10-03T05:12:17;100974.03;;;8.90;85.68
74905;BME280;63465;50.862;6.220;2022-10-03T05:17:39;100979.47;;;8.82;86.07
74905;BME280;63465;50.862;6.220;2022-10-03T05:20:23;100981.03;;;8.91;85.81
74905;BME280;63465;50.862;6.220;2022-10-03T05:23:13;100976.91;;;8.79;85.85
74905;BME280;63465;50.862;6.220;2022-10-03T05:28:47;100979.09;;;9.01;85.79
74905;BME280;63465;50.862;6.220;2022-10-03T05:31:25;100978.53;;;8.85;85.34
74905;BME280;63465;50.862;6.220;2022-10-03T05:34:02;100988.16;;;8.89;85.01
74905;BME280;63465;50.862;6.220;2022-10-03T05:39:37;101004.13;;;8.84;84.84
74905;BME280;63465;50.862;6.220;2022-10-03T05:42:33;100994.81;;;11.40;78.76
74905;BME280;63465;50.862;6.220;2022-10-03T05:47:52;101000.84;;;11.74;77.45
74905;BME280;63465;50.862;6.220;2022-10-03T05:55:44;101005.31;;;12.27;74.47
74905;BME280;63465;50.862;6.220;2022-10-03T06:01:15;101015.94;;;12.52;75.57
74905;BME280;63465;50.862;6.220;2022-10-03T06:09:34;101015.22;;;11.97;75.97
74905;BME280;63465;50.862;6.220;2022-10-03T06:12:10;101023.25;;;13.18;73.98
74905;BME280;63465;50.862;6.220;2022-10-03T06:17:27;101024.78;;;13.01;74.08
74905;BME280;63465;50.862;6.220;2022-10-03T06:20:13;101027.34;;;12.05;76.21
74905;BME280;63465;50.862;6.220;2022-10-03T06:28:48;101019.56;;;12.49;75.74
74905;BME280;63465;50.862;6.220;2022-10-03T06:32:11;101017.31;;;13.11;72.10
74905;BME280;63465;50.862;6.220;2022-10-03T06:35:08;101014.16;;;13.00;73.53
74905;BME280;63465;50.862;6.220;2022-10-03T06:43:23;101027.38;;;12.56;73.84
74905;BME280;63465;50.862;6.220;2022-10-03T06:49:31;101028.94;;;13.09;72.77
74905;BME280;63465;50.862;6.220;2022-10-03T06:58:04;101035.47;;;13.47;71.49
74905;BME280;63465;50.862;6.220;2022-10-03T07:01:06;101028.31;;;14.14;70.54
74905;BME280;63465;50.862;6.220;2022-10-03T07:06:54;101035.25;;;13.06;72.04
74905;BME280;63465;50.862;6.220;2022-10-03T07:10:50;101041.38;;;13.32;70.51
74905;BME280;63465;50.862;6.220;2022-10-03T07:13:09;101029.63;;;14.67;69.09
74905;BME280;63465;50.862;6.220;2022-10-03T07:15:50;101037.41;;;13.88;71.28
74905;BME280;63465;50.862;6.220;2022-10-03T07:21:27;101035.66;;;14.30;68.72
74905;BME280;63465;50.862;6.220;2022-10-03T07:27:13;101040.94;;;14.11;69.89
74905;BME280;63465;50.862;6.220;2022-10-03T07:29:49;101041.72;;;14.33;69.28
74905;BME280;63465;50.862;6.220;2022-10-03T07:41:20;101048.03;;;14.73;69.74
74905;BME280;63465;50.862;6.220;2022-10-03T07:49:48;101061.06;;;14.81;68.07
74905;BME280;63465;50.862;6.220;2022-10-03T07:52:37;101070.63;;;15.25;67.37
74905;BME280;63465;50.862;6.220;2022-10-03T07:55:22;101066.69;;;14.75;69.22
74905;BME280;63465;50.862;6.220;2022-10-03T08:03:27;101077.50;;;14.72;69.66
74905;BME280;63465;50.862;6.220;2022-10-03T08:06:21;101079.66;;;15.60;66.40
74905;BME280;63465;50.862;6.220;2022-10-03T08:22:51;101092.06;;;15.44;65.75
74905;BME280;63465;50.862;6.220;2022-10-03T08:36:54;101098.16;;;14.03;71.72
74905;BME280;63465;50.862;6.220;2022-10-03T09:12:30;101087.13;;;17.30;56.87
74905;BME280;63465;50.862;6.220;2022-10-03T09:24:06;101082.22;;;16.54;60.55
74905;BME280;63465;50.862;6.220;2022-10-03T09:27:13;101091.97;;;17.39;58.07
74905;BME280;63465;50.862;6.220;2022-10-03T09:30:02;101084.28;;;18.88;52.39
74905;BME280;63465;50.862;6.220;2022-10-03T09:35:48;101078.84;;;21.70;44.08
74905;BME280;63465;50.862;6.220;2022-10-03T09:41:59;101068.66;;;22.22;43.12
74905;BME280;63465;50.862;6.220;2022-10-03T09:47:45;101080.38;;;19.22;51.48
74905;BME280;63465;50.862;6.220;2022-10-03T09:56:46;101077.22;;;16.99;57.63
74905;BME280;63465;50.862;6.220;2022-10-03T09:59:55;101084.66;;;17.43;56.37
74905;BME280;63465;50.862;6.220;2022-10-03T10:03:08;101080.94;;;16.09;60.51
74905;BME280;63465;50.862;6.220;2022-10-03T10:09:13;101076.16;;;15.41;62.47
74905;BME280;63465;50.862;6.220;2022-10-03T10:14:57;101081.03;;;15.31;63.09
74905;BME280;63465;50.862;6.220;2022-10-03T10:17:59;101066.75;;;16.07;60.25
74905;BME280;63465;50.862;6.220;2022-10-03T10:21:02;101069.44;;;18.66;53.38
74905;BME280;63465;50.862;6.220;2022-10-03T10:23:48;101063.06;;;20.10;48.07
74905;BME280;63465;50.862;6.220;2022-10-03T10:26:42;101062.28;;;21.25;42.55
74905;BME280;63465;50.862;6.220;2022-10-03T10:29:34;101057.91;;;20.98;43.41
74905;BME280;63465;50.862;6.220;2022-10-03T10:32:45;101053.34;;;20.99;44.75
74905;BME280;63465;50.862;6.220;2022-10-03T10:38:33;101057.78;;;20.74;45.54
74905;BME280;63465;50.862;6.220;2022-10-03T10:41:24;101058.78;;;21.36;42.97
74905;BME280;63465;50.862;6.220;2022-10-03T10:57:05;101049.63;;;16.79;55.28
74905;BME280;63465;50.862;6.220;2022-10-03T11:00:06;101057.19;;;16.88;54.11
74905;BME280;63465;50.862;6.220;2022-10-03T11:03:20;101051.41;;;16.10;57.62
74905;BME280;63465;50.862;6.220;2022-10-03T11:09:30;101057.97;;;15.85;60.65
74905;BME280;63465;50.862;6.220;2022-10-03T11:12:28;101058.69;;;15.89;59.22
74905;BME280;63465;50.862;6.220;2022-10-03T11:15:32;101057.81;;;15.89;57.50
74905;BME280;63465;50.862;6.220;2022-10-03T11:18:32;101060.06;;;15.79;57.49
74905;BME280;63465;50.862;6.220;2022-10-03T11:21:35;101046.81;;;15.76;57.78
74905;BME280;63465;50.862;6.220;2022-10-03T11:30:27;101040.94;;;21.09;42.47
74905;BME280;63465;50.862;6.220;2022-10-03T11:33:34;101031.50;;;24.27;36.07
74905;BME280;63465;50.862;6.220;2022-10-03T11:39:30;101039.38;;;20.41;43.94
74905;BME280;63465;50.862;6.220;2022-10-03T11:42:05;101041.44;;;19.14;45.63
74905;BME280;63465;50.862;6.220;2022-10-03T11:44:40;101039.38;;;19.46;45.10
74905;BME280;63465;50.862;6.220;2022-10-03T11:50:29;101047.13;;;21.35;37.96
74905;BME280;63465;50.862;6.220;2022-10-03T11:53:11;101040.50;;;21.15;38.70
74905;BME280;63465;50.862;6.220;2022-10-03T11:55:43;101041.25;;;21.67;38.49
74905;BME280;63465;50.862;6.220;2022-10-03T11:58:26;101032.56;;;20.22;40.68
74905;BME280;63465;50.862;6.220;2022-10-03T12:03:50;101032.09;;;18.62;45.19
74905;BME280;63465;50.862;6.220;2022-10-03T12:06:36;101031.63;;;19.69;43.99
74905;BME280;63465;50.862;6.220;2022-10-03T12:09:30;101036.69;;;21.68;40.29
74905;BME280;63465;50.862;6.220;2022-10-03T12:12:09;101026.38;;;20.73;41.64
74905;BME280;63465;50.862;6.220;2022-10-03T12:14:41;101034.41;;;21.25;41.46
74905;BME280;63465;50.862;6.220;2022-10-03T12:17:13;101024.41;;;22.59;37.83
74905;BME280;63465;50.862;6.220;2022-10-03T12:19:52;101027.38;;;20.19;42.40
74905;BME280;63465;50.862;6.220;2022-10-03T12:22:32;101029.91;;;19.95;42.40
74905;BME280;63465;50.862;6.220;2022-10-03T12:25:12;101032.59;;;18.83;46.98
74905;BME280;63465;50.862;6.220;2022-10-03T12:27:48;101027.31;;;18.96;46.33
74905;BME280;63465;50.862;6.220;2022-10-03T12:30:17;101029.63;;;18.28;48.34
74905;BME280;63465;50.862;6.220;2022-10-03T12:32:54;101025.06;;;18.14;47.65
74905;BME280;63465;50.862;6.220;2022-10-03T12:35:39;101025.41;;;17.94;46.77
74905;BME280;63465;50.862;6.220;2022-10-03T12:38:22;101027.81;;;18.88;45.86
74905;BME280;63465;50.862;6.220;2022-10-03T12:40:58;101020.25;;;18.95;44.98
74905;BME280;63465;50.862;6.220;2022-10-03T12:43:41;101021.69;;;18.41;45.49
74905;BME280;63465;50.862;6.220;2022-10-03T12:46:15;101019.25;;;18.81;45.26
74905;BME280;63465;50.862;6.220;2022-10-03T12:48:46;101023.59;;;18.39;46.27
74905;BME280;63465;50.862;6.220;2022-10-03T12:51:33;101023.41;;;19.16;44.36
74905;BME280;63465;50.862;6.220;2022-10-03T12:54:14;101014.63;;;18.69;47.54
74905;BME280;63465;50.862;6.220;2022-10-03T12:56:48;101018.25;;;18.53;49.74
74905;BME280;63465;50.862;6.220;2022-10-03T12:59:27;101019.59;;;18.02;49.92
74905;BME280;63465;50.862;6.220;2022-10-03T13:02:22;101009.22;;;17.63;51.86
74905;BME280;63465;50.862;6.220;2022-10-03T13:05:17;101010.25;;;17.61;53.08
74905;BME280;63465;50.862;6.220;2022-10-03T13:07:52;101014.72;;;17.76;51.16
74905;BME280;63465;50.862;6.220;2022-10-03T13:10:28;101000.19;;;17.80;52.32
74905;BME280;63465;50.862;6.220;2022-10-03T13:13:13;101007.34;;;17.50;52.75
74905;BME280;63465;50.862;6.220;2022-10-03T13:18:52;100997.13;;;17.87;50.29
74905;BME280;63465;50.862;6.220;2022-10-03T13:21:29;101004.38;;;17.54;53.46
74905;BME280;63465;50.862;6.220;2022-10-03T13:24:08;100994.91;;;17.79;51.71
74905;BME280;63465;50.862;6.220;2022-10-03T13:26:52;100995.66;;;17.51;52.68
74905;BME280;63465;50.862;6.220;2022-10-03T13:29:24;100986.72;;;18.12;51.70
74905;BME280;63465;50.862;6.220;2022-10-03T13:32:06;101001.31;;;17.76;51.58
74905;BME280;63465;50.862;6.220;2022-10-03T13:37:58;100992.31;;;17.77;51.14
74905;BME280;63465;50.862;6.220;2022-10-03T13:40:31;100991.25;;;17.34;53.73
74905;BME280;63465;50.862;6.220;2022-10-03T13:43:01;100991.47;;;17.61;51.97
74905;BME280;63465;50.862;6.220;2022-10-03T13:45:31;100986.91;;;17.63;51.78
74905;BME280;63465;50.862;6.220;2022-10-03T13:48:00;100988.75;;;17.31;52.78
74905;BME280;63465;50.862;6.220;2022-10-03T13:50:39;100986.56;;;17.37;53.28
74905;BME280;63465;50.862;6.220;2022-10-03T13:53:18;100980.75;;;17.45;52.29
74905;BME280;63465;50.862;6.220;2022-10-03T13:55:49;100973.66;;;17.44;52.19
74905;BME280;63465;50.862;6.220;2022-10-03T13:58:27;100979.47;;;17.20;52.59
74905;BME280;63465;50.862;6.220;2022-10-03T14:04:12;100971.50;;;17.19;52.61
74905;BME280;63465;50.862;6.220;2022-10-03T14:06:49;100973.16;;;17.37;52.06
74905;BME280;63465;50.862;6.220;2022-10-03T14:09:35;100964.94;;;17.40;52.34
74905;BME280;63465;50.862;6.220;2022-10-03T14:12:13;100980.50;;;17.18;53.46
74905;BME280;63465;50.862;6.220;2022-10-03T14:15:03;100974.00;;;16.90;53.02
74905;BME280;63465;50.862;6.220;2022-10-03T14:17:36;100973.88;;;16.75;54.38
74905;BME280;63465;50.862;6.220;2022-10-03T14:20:19;100975.25;;;16.83;54.07
74905;BME280;63465;50.862;6.220;2022-10-03T14:22:56;100972.56;;;16.83;53.69
74905;BME280;63465;50.862;6.220;2022-10-03T14:25:29;100975.66;;;16.75;54.00
74905;BME280;63465;50.862;6.220;2022-10-03T14:28:07;100975.91;;;16.70;53.90
74905;BME280;63465;50.862;6.220;2022-10-03T14:30:45;100962.44;;;16.72;55.14
74905;BME280;63465;50.862;6.220;2022-10-03T14:33:22;100965.00;;;16.57;54.87
74905;BME280;63465;50.862;6.220;2022-10-03T14:36:02;100969.25;;;17.11;52.45
74905;BME280;63465;50.862;6.220;2022-10-03T14:38:52;100959.75;;;17.37;51.02
74905;BME280;63465;50.862;6.220;2022-10-03T14:41:35;100952.44;;;17.39;51.51
74905;BME280;63465;50.862;6.220;2022-10-03T14:44:08;100951.63;;;17.23;51.22
74905;BME280;63465;50.862;6.220;2022-10-03T14:46:41;100959.47;;;17.10;51.37
74905;BME280;63465;50.862;6.220;2022-10-03T14:49:18;100949.09;;;17.04;52.20
74905;BME280;63465;50.862;6.220;2022-10-03T14:51:48;100944.19;;;17.12;52.11
74905;BME280;63465;50.862;6.220;2022-10-03T14:54:18;100943.41;;;17.26;51.10
74905;BME280;63465;50.862;6.220;2022-10-03T14:56:47;100938.09;;;17.40;49.68
74905;BME280;63465;50.862;6.220;2022-10-03T14:59:20;100944.25;;;16.94;52.77
74905;BME280;63465;50.862;6.220;2022-10-03T15:01:49;100942.72;;;17.06;54.17
74905;BME280;63465;50.862;6.220;2022-10-03T15:04:25;100939.56;;;16.98;51.68
74905;BME280;63465;50.862;6.220;2022-10-03T15:06:54;100944.63;;;16.71;52.94
74905;BME280;63465;50.862;6.220;2022-10-03T15:09:24;100941.13;;;16.53;53.30
74905;BME280;63465;50.862;6.220;2022-10-03T15:12:00;100940.47;;;16.65;52.25
74905;BME280;63465;50.862;6.220;2022-10-03T15:14:34;100938.56;;;16.67;52.02
74905;BME280;63465;50.862;6.220;2022-10-03T15:17:06;100933.44;;;16.63;54.35
74905;BME280;63465;50.862;6.220;2022-10-03T15:19:44;100929.66;;;16.67;52.44
74905;BME280;63465;50.862;6.220;2022-10-03T15:22:27;100932.69;;;16.61;52.21
74905;BME280;63465;50.862;6.220;2022-10-03T15:24:58;100926.13;;;16.66;52.96
74905;BME280;63465;50.862;6.220;2022-10-03T15:27:27;100933.19;;;16.51;53.99
74905;BME280;63465;50.862;6.220;2022-10-03T15:29:58;100931.34;;;16.52;54.56
74905;BME280;63465;50.862;6.220;2022-10-03T15:32:29;100917.78;;;16.39;52.77
74905;BME280;63465;50.862;6.220;2022-10-03T15:34:59;100912.16;;;16.44;55.20
74905;BME280;63465;50.862;6.220;2022-10-03T15:37:30;100917.28;;;16.31;55.02
74905;BME280;63465;50.862;6.220;2022-10-03T15:40:06;100907.88;;;16.23;56.75
74905;BME280;63465;50.862;6.220;2022-10-03T15:42:48;100906.56;;;16.15;58.63
74905;BME280;63465;50.862;6.220;2022-10-03T15:45:21;100896.25;;;16.07;57.15
74905;BME280;63465;50.862;6.220;2022-10-03T15:47:50;100904.56;;;16.18;56.84
74905;BME280;63465;50.862;6.220;2022-10-03T15:50:20;100909.72;;;16.05;57.83
74905;BME280;63465;50.862;6.220;2022-10-03T15:52:49;100899.84;;;16.06;57.75
74905;BME280;63465;50.862;6.220;2022-10-03T15:55:19;100901.75;;;16.04;57.21
74905;BME280;63465;50.862;6.220;2022-10-03T15:57:50;100905.63;;;16.16;55.55
74905;BME280;63465;50.862;6.220;2022-10-03T16:00:25;100905.69;;;15.97;56.09
74905;BME280;63465;50.862;6.220;2022-10-03T16:02:59;100903.81;;;15.99;55.57
74905;BME280;63465;50.862;6.220;2022-10-03T16:05:34;100896.13;;;15.93;56.21
74905;BME280;63465;50.862;6.220;2022-10-03T16:08:06;100887.44;;;16.05;55.31
74905;BME280;63465;50.862;6.220;2022-10-03T16:10:37;100881.44;;;16.00;56.03
74905;BME280;63465;50.862;6.220;2022-10-03T16:13:14;100888.50;;;15.85;57.64
74905;BME280;63465;50.862;6.220;2022-10-03T16:15:57;100894.94;;;15.81;57.72
74905;BME280;63465;50.862;6.220;2022-10-03T16:18:48;100888.91;;;15.76;56.57
74905;BME280;63465;50.862;6.220;2022-10-03T16:21:27;100891.56;;;15.76;55.96
74905;BME280;63465;50.862;6.220;2022-10-03T16:23:57;100878.41;;;15.90;56.07
74905;BME280;63465;50.862;6.220;2022-10-03T16:26:28;100879.72;;;15.81;56.78
74905;BME280;63465;50.862;6.220;2022-10-03T16:29:01;100876.97;;;15.65;56.81
74905;BME280;63465;50.862;6.220;2022-10-03T16:31:38;100872.09;;;15.56;57.46
74905;BME280;63465;50.862;6.220;2022-10-03T16:34:11;100866.25;;;15.48;57.97
74905;BME280;63465;50.862;6.220;2022-10-03T16:36:41;100854.75;;;15.63;56.78
74905;BME280;63465;50.862;6.220;2022-10-03T16:39:17;100854.53;;;15.50;57.03
74905;BME280;63465;50.862;6.220;2022-10-03T16:41:45;100854.38;;;15.54;55.86
74905;BME280;63465;50.862;6.220;2022-10-03T16:44:18;100843.81;;;15.50;56.89
74905;BME280;63465;50.862;6.220;2022-10-03T16:46:48;100850.03;;;15.51;58.20
74905;BME280;63465;50.862;6.220;2022-10-03T16:49:30;100852.88;;;15.65;58.73
74905;BME280;63465;50.862;6.220;2022-10-03T16:52:20;100857.19;;;15.68;57.97
74905;BME280;63465;50.862;6.220;2022-10-03T16:54:56;100838.91;;;15.78;58.08
74905;BME280;63465;50.862;6.220;2022-10-03T16:57:28;100838.72;;;15.81;58.07
74905;BME280;63465;50.862;6.220;2022-10-03T16:59:58;100832.78;;;15.74;58.46
74905;BME280;63465;50.862;6.220;2022-10-03T17:02:32;100836.44;;;15.73;58.74
74905;BME280;63465;50.862;6.220;2022-10-03T17:05:05;100840.44;;;15.64;60.13
74905;BME280;63465;50.862;6.220;2022-10-03T17:07:38;100845.78;;;15.64;62.13
74905;BME280;63465;50.862;6.220;2022-10-03T17:10:20;100838.63;;;15.47;63.16
74905;BME280;63465;50.862;6.220;2022-10-03T17:12:52;100839.88;;;15.40;63.84
74905;BME280;63465;50.862;6.220;2022-10-03T17:15:21;100845.84;;;15.28;62.26
74905;BME280;63465;50.862;6.220;2022-10-03T17:17:52;100845.16;;;15.24;62.42
74905;BME280;63465;50.862;6.220;2022-10-03T17:20:36;100840.34;;;15.13;62.27
74905;BME280;63465;50.862;6.220;2022-10-03T17:23:09;100840.81;;;15.04;62.41
74905;BME280;63465;50.862;6.220;2022-10-03T17:25:42;100855.13;;;14.65;64.15
74905;BME280;63465;50.862;6.220;2022-10-03T17:28:17;100855.13;;;14.46;65.67
74905;BME280;63465;50.862;6.220;2022-10-03T17:30:50;100856.56;;;14.34;66.24
74905;BME280;63465;50.862;6.220;2022-10-03T17:33:24;100853.25;;;14.08;67.33
74905;BME280;63465;50.862;6.220;2022-10-03T17:36:03;100843.38;;;14.50;66.05
74905;BME280;63465;50.862;6.220;2022-10-03T17:38:44;100836.91;;;14.54;65.68
74905;BME280;63465;50.862;6.220;2022-10-03T17:41:18;100846.56;;;14.19;67.07
74905;BME280;63465;50.862;6.220;2022-10-03T17:43:49;100843.81;;;14.01;67.86
74905;BME280;63465;50.862;6.220;2022-10-03T17:46:29;100845.59;;;14.01;67.73
74905;BME280;63465;50.862;6.220;2022-10-03T17:49:06;100842.16;;;14.18;67.44
74905;BME280;63465;50.862;6.220;2022-10-03T17:51:44;100834.63;;;14.27;67.37
74905;BME280;63465;50.862;6.220;2022-10-03T17:54:15;100836.91;;;14.16;67.86
74905;BME280;63465;50.862;6.220;2022-10-03T17:56:49;100831.78;;;14.12;67.84
74905;BME280;63465;50.862;6.220;2022-10-03T17:59:22;100832.66;;;14.12;67.99
74905;BME280;63465;50.862;6.220;2022-10-03T18:01:52;100837.25;;;14.08;68.26
74905;BME280;63465;50.862;6.220;2022-10-03T18:04:29;100829.63;;;13.80;68.53
74905;BME280;63465;50.862;6.220;2022-10-03T18:07:01;100829.44;;;13.44;70.08
74905;BME280;63465;50.862;6.220;2022-10-03T18:09:33;100832.34;;;13.37;70.53
74905;BME280;63465;50.862;6.220;2022-10-03T18:12:16;100830.13;;;13.27;70.82
74905;BME280;63465;50.862;6.220;2022-10-03T18:17:48;100815.38;;;13.61;69.92
74905;BME280;63465;50.862;6.220;2022-10-03T18:20:34;100804.25;;;13.51;70.24
74905;BME280;63465;50.862;6.220;2022-10-03T18:23:10;100812.13;;;13.32;71.01
74905;BME280;63465;50.862;6.220;2022-10-03T18:25:49;100818.88;;;12.98;72.39
74905;BME280;63465;50.862;6.220;2022-10-03T18:28:26;100813.66;;;13.17;71.94
74905;BME280;63465;50.862;6.220;2022-10-03T18:30:56;100814.00;;;13.30;71.12
74905;BME280;63465;50.862;6.220;2022-10-03T18:33:27;100822.75;;;13.33;70.78
74905;BME280;63465;50.862;6.220;2022-10-03T18:36:00;100815.88;;;13.28;70.98
74905;BME280;63465;50.862;6.220;2022-10-03T18:38:34;100818.34;;;13.32;70.71
74905;BME280;63465;50.862;6.220;2022-10-03T18:41:03;100820.13;;;13.32;70.48
74905;BME280;63465;50.862;6.220;2022-10-03T18:43:33;100819.31;;;13.30;70.71
74905;BME280;63465;50.862;6.220;2022-10-03T18:46:11;100826.50;;;12.85;71.46
74905;BME280;63465;50.862;6.220;2022-10-03T18:48:49;100827.66;;;12.78;72.60
74905;BME280;63465;50.862;6.220;2022-10-03T18:51:28;100821.22;;;13.06;71.47
74905;BME280;63465;50.862;6.220;2022-10-03T18:53:58;100819.84;;;13.17;70.02
74905;BME280;63465;50.862;6.220;2022-10-03T18:56:26;100822.69;;;13.13;70.24
74905;BME280;63465;50.862;6.220;2022-10-03T18:59:13;100812.56;;;13.00;69.78
74905;BME280;63465;50.862;6.220;2022-10-03T19:01:47;100814.00;;;13.08;69.25
74905;BME280;63465;50.862;6.220;2022-10-03T19:04:21;100819.78;;;12.75;69.39
74905;BME280;63465;50.862;6.220;2022-10-03T19:06:55;100821.34;;;12.80;69.56
74905;BME280;63465;50.862;6.220;2022-10-03T19:09:25;100807.59;;;12.91;69.62
74905;BME280;63465;50.862;6.220;2022-10-03T19:11:57;100802.53;;;12.85;69.66
74905;BME280;63465;50.862;6.220;2022-10-03T19:14:31;100804.31;;;12.84;69.90
74905;BME280;63465;50.862;6.220;2022-10-03T19:17:13;100810.91;;;12.52;70.41
74905;BME280;63465;50.862;6.220;2022-10-03T19:19:48;100819.63;;;12.57;70.45
74905;BME280;63465;50.862;6.220;2022-10-03T19:22:23;100821.88;;;12.44;71.03
74905;BME280;63465;50.862;6.220;2022-10-03T19:24:51;100835.19;;;12.44;71.54
74905;BME280;63465;50.862;6.220;2022-10-03T19:27:22;100821.59;;;12.74;69.95
74905;BME280;63465;50.862;6.220;2022-10-03T19:29:52;100813.91;;;12.89;69.59
74905;BME280;63465;50.862;6.220;2022-10-03T19:32:25;100822.09;;;12.84;69.66
74905;BME280;63465;50.862;6.220;2022-10-03T19:34:57;100815.38;;;12.74;69.89
74905;BME280;63465;50.862;6.220;2022-10-03T19:37:38;100820.97;;;12.45;70.84
74905;BME280;63465;50.862;6.220;2022-10-03T19:40:12;100828.59;;;12.31;71.82
74905;BME280;63465;50.862;6.220;2022-10-03T19:42:42;100826.72;;;12.57;70.91
74905;BME280;63465;50.862;6.220;2022-10-03T19:45:12;100826.41;;;12.64;70.78
74905;BME280;63465;50.862;6.220;2022-10-03T19:47:42;100815.63;;;12.67;70.53
74905;BME280;63465;50.862;6.220;2022-10-03T19:50:15;100820.91;;;12.69;70.51
74905;BME280;63465;50.862;6.220;2022-10-03T19:52:47;100826.34;;;12.66;70.72
74905;BME280;63465;50.862;6.220;2022-10-03T19:55:17;100813.03;;;12.66;70.95
74905;BME280;63465;50.862;6.220;2022-10-03T19:57:48;100809.44;;;12.67;71.04
74905;BME280;63465;50.862;6.220;2022-10-03T20:00:22;100805.94;;;12.66;71.11
74905;BME280;63465;50.862;6.220;2022-10-03T20:02:55;100800.84;;;12.60;71.57
74905;BME280;63465;50.862;6.220;2022-10-03T20:05:49;100798.50;;;12.53;71.99
74905;BME280;63465;50.862;6.220;2022-10-03T20:08:22;100805.91;;;12.44;72.43
74905;BME280;63465;50.862;6.220;2022-10-03T20:11:05;100817.28;;;12.48;72.26
74905;BME280;63465;50.862;6.220;2022-10-03T20:13:41;100793.50;;;12.43;72.49
74905;BME280;63465;50.862;6.220;2022-10-03T20:16:12;100799.06;;;12.37;72.56
74905;BME280;63465;50.862;6.220;2022-10-03T20:18:40;100804.19;;;12.20;72.95
74905;BME280;63465;50.862;6.220;2022-10-03T20:21:10;100805.34;;;12.12;72.96
74905;BME280;63465;50.862;6.220;2022-10-03T20:23:40;100805.22;;;12.16;73.00
74905;BME280;63465;50.862;6.220;2022-10-03T20:26:15;100801.91;;;12.32;72.23
74905;BME280;63465;50.862;6.220;2022-10-03T20:28:54;100817.38;;;12.23;72.49
74905;BME280;63465;50.862;6.220;2022-10-03T20:31:27;100811.25;;;12.21;72.42
74905;BME280;63465;50.862;6.220;2022-10-03T20:33:58;100806.56;;;12.27;72.00
74905;BME280;63465;50.862;6.220;2022-10-03T20:36:29;100801.22;;;12.27;72.09